createdAt,value
2023-03-27T00:01:17.975Z,98818.47
2023-03-27T00:03:49.764Z,98818.69
2023-03-27T00:06:19.704Z,98813.44
2023-03-27T00:08:51.229Z,98789.56
2023-03-27T00:11:21.207Z,98803.34
2023-03-27T00:13:51.414Z,98800.88
2023-03-27T00:16:21.687Z,98798.31
2023-03-27T00:18:50.251Z,98811.87
2023-03-27T00:21:18.480Z,98813.94
2023-03-27T00:23:47.086Z,98821.44
2023-03-27T00:26:15.902Z,98819.03
2023-03-27T00:28:44.209Z,98808.47
2023-03-27T00:31:13.588Z,98805.00
2023-03-27T00:33:43.098Z,98795.88
2023-03-27T00:36:11.621Z,98801.31
2023-03-27T00:38:40.071Z,98780.13
2023-03-27T00:41:08.992Z,98780.13
2023-03-27T00:43:43.793Z,98775.06
2023-03-27T00:46:15.114Z,98766.34
2023-03-27T00:48:47.377Z,98760.00
2023-03-27T00:51:16.824Z,98740.50
2023-03-27T00:53:47.111Z,98752.09
2023-03-27T00:56:16.676Z,98734.78
2023-03-27T00:58:51.390Z,98735.56
2023-03-27T01:01:22.027Z,98735.87
2023-03-27T01:03:51.621Z,98706.53
2023-03-27T01:06:21.489Z,98717.75
2023-03-27T01:08:49.999Z,98708.91
2023-03-27T01:11:55.890Z,98657.84
2023-03-27T01:14:24.061Z,98689.44
2023-03-27T01:17:07.074Z,98684.28
2023-03-27T01:19:47.722Z,98659.25
2023-03-27T01:22:30.677Z,98672.34
2023-03-27T01:25:33.170Z,98656.28
2023-03-27T01:28:16.420Z,98660.66
2023-03-27T01:30:57.056Z,98656.94
2023-03-27T01:34:16.530Z,98659.59
2023-03-27T01:37:06.708Z,98646.59
2023-03-27T01:40:14.142Z,98631.19
2023-03-27T01:42:51.819Z,98618.19
2023-03-27T01:45:52.669Z,98614.16
2023-03-27T01:48:40.136Z,98574.75
2023-03-27T01:51:24.010Z,98602.19
2023-03-27T01:57:23.400Z,98586.34
2023-03-27T02:00:18.218Z,98569.94
2023-03-27T02:02:54.045Z,98564.09
2023-03-27T02:05:36.664Z,98562.25
2023-03-27T02:08:24.827Z,98559.22
2023-03-27T02:10:58.600Z,98543.00
2023-03-27T02:13:40.443Z,98545.59
2023-03-27T02:16:13.392Z,98518.16
2023-03-27T02:18:49.584Z,98537.28
2023-03-27T02:21:18.005Z,98541.75
2023-03-27T02:23:47.642Z,98525.84
2023-03-27T02:26:15.706Z,98543.00
2023-03-27T02:29:05.707Z,98518.78
2023-03-27T02:32:00.583Z,98544.84
2023-03-27T02:34:50.650Z,98541.91
2023-03-27T02:37:45.956Z,98523.28
2023-03-27T02:40:21.306Z,98539.41
2023-03-27T02:43:06.679Z,98537.78
2023-03-27T02:45:50.008Z,98530.53
2023-03-27T02:48:34.577Z,98534.56
2023-03-27T02:51:12.520Z,98525.59
2023-03-27T02:53:48.108Z,98527.66
2023-03-27T02:56:20.227Z,98516.81
2023-03-27T02:58:57.423Z,98529.50
2023-03-27T03:01:32.015Z,98534.56
2023-03-27T03:04:07.576Z,98529.34
2023-03-27T03:06:36.952Z,98529.41
2023-03-27T03:09:06.395Z,98531.97
2023-03-27T03:11:36.126Z,98526.69
2023-03-27T03:14:04.239Z,98495.66
2023-03-27T03:16:32.719Z,98488.00
2023-03-27T03:19:01.372Z,98544.97
2023-03-27T03:21:29.843Z,98543.72
2023-03-27T03:23:59.286Z,98543.34
2023-03-27T03:26:27.849Z,98549.19
2023-03-27T03:28:59.865Z,98562.91
2023-03-27T03:31:43.515Z,98547.28
2023-03-27T03:34:13.251Z,98558.16
2023-03-27T03:36:45.144Z,98568.56
2023-03-27T03:39:13.170Z,98571.94
2023-03-27T03:41:42.009Z,98539.97
2023-03-27T03:44:10.628Z,98542.88
2023-03-27T03:46:39.780Z,98565.81
2023-03-27T03:49:08.334Z,98557.75
2023-03-27T03:51:36.721Z,98514.72
2023-03-27T03:54:09.312Z,98537.91
2023-03-27T03:56:41.615Z,98563.19
2023-03-27T03:59:11.907Z,98541.28
2023-03-27T04:01:54.285Z,98549.81
2023-03-27T04:04:22.799Z,98542.88
2023-03-27T04:06:51.480Z,98543.47
2023-03-27T04:09:19.456Z,98547.34
2023-03-27T04:11:50.420Z,98548.88
2023-03-27T04:14:18.683Z,98547.59
2023-03-27T04:16:50.437Z,98547.88
2023-03-27T04:19:18.709Z,98506.13
2023-03-27T04:21:47.501Z,98542.31
2023-03-27T04:24:18.341Z,98477.69
2023-03-27T04:26:46.808Z,98505.81
2023-03-27T04:29:16.248Z,98536.88
2023-03-27T04:31:46.906Z,98542.16
2023-03-27T04:34:22.545Z,98505.38
2023-03-27T04:36:52.276Z,98520.28
2023-03-27T04:39:21.107Z,98537.03
2023-03-27T04:41:49.547Z,98522.84
2023-03-27T04:44:18.552Z,98524.19
2023-03-27T04:46:50.556Z,98508.56
2023-03-27T04:49:19.276Z,98519.28
2023-03-27T04:51:48.073Z,98499.84
2023-03-27T04:54:16.310Z,98510.72
2023-03-27T04:56:45.854Z,98498.44
2023-03-27T04:59:15.702Z,98499.37
2023-03-27T05:01:44.824Z,98479.81
2023-03-27T05:04:13.477Z,98492.25
2023-03-27T05:06:41.973Z,98468.78
2023-03-27T05:09:11.270Z,98481.19
2023-03-27T05:11:39.218Z,98438.63
2023-03-27T05:14:09.168Z,98458.81
2023-03-27T05:16:37.547Z,98459.63
2023-03-27T05:19:05.910Z,98462.44
2023-03-27T05:21:38.703Z,98444.38
2023-03-27T05:24:09.755Z,98460.94
2023-03-27T05:26:39.353Z,98426.62
2023-03-27T05:29:08.868Z,98448.56
2023-03-27T05:31:38.458Z,98439.59
2023-03-27T05:34:10.155Z,98445.50
2023-03-27T05:36:42.987Z,98450.69
2023-03-27T05:39:15.745Z,98452.94
2023-03-27T05:41:44.769Z,98441.00
2023-03-27T05:44:19.042Z,98455.44
2023-03-27T05:46:48.069Z,98471.44
2023-03-27T05:49:17.922Z,98477.81
2023-03-27T05:51:51.590Z,98491.75
2023-03-27T05:54:23.794Z,98491.09
2023-03-27T05:56:52.775Z,98456.34
2023-03-27T05:59:21.137Z,98486.16
2023-03-27T06:01:50.662Z,98486.94
2023-03-27T06:04:24.106Z,98478.09
2023-03-27T06:06:52.394Z,98490.31
2023-03-27T06:09:23.097Z,98499.16
2023-03-27T06:11:52.708Z,98493.31
2023-03-27T06:14:20.809Z,98506.34
2023-03-27T06:16:50.396Z,98504.97
2023-03-27T06:19:19.151Z,98477.16
2023-03-27T06:21:48.442Z,98482.06
2023-03-27T06:24:17.000Z,98496.88
2023-03-27T06:26:45.554Z,98498.72
2023-03-27T06:29:13.994Z,98493.00
2023-03-27T06:31:45.872Z,98497.53
2023-03-27T06:34:15.265Z,98501.13
2023-03-27T06:36:43.322Z,98513.22
2023-03-27T06:39:12.148Z,98521.56
2023-03-27T06:41:42.836Z,98517.06
2023-03-27T06:44:12.692Z,98501.84
2023-03-27T06:46:45.811Z,98512.25
2023-03-27T06:49:15.357Z,98474.44
2023-03-27T06:51:44.099Z,98499.59
2023-03-27T06:54:13.643Z,98492.19
2023-03-27T06:56:44.521Z,98497.53
2023-03-27T06:59:13.490Z,98491.69
2023-03-27T07:01:42.041Z,98498.44
2023-03-27T07:04:11.623Z,98493.34
2023-03-27T07:06:40.346Z,98480.00
2023-03-27T07:09:09.721Z,98480.53
2023-03-27T07:11:38.236Z,98483.19
2023-03-27T07:14:08.219Z,98453.47
2023-03-27T07:16:36.668Z,98460.81
2023-03-27T07:19:05.603Z,98467.13
2023-03-27T07:21:34.097Z,98456.50
2023-03-27T07:24:02.480Z,98376.91
2023-03-27T07:26:31.268Z,98447.03
2023-03-27T07:29:01.055Z,98469.16
2023-03-27T07:31:51.656Z,98481.69
2023-03-27T07:34:27.275Z,98484.72
2023-03-27T07:36:59.508Z,98457.75
2023-03-27T07:39:28.267Z,98491.28
2023-03-27T07:41:56.860Z,98492.44
2023-03-27T07:44:25.967Z,98500.56
2023-03-27T07:46:54.636Z,98503.22
2023-03-27T07:49:39.774Z,98506.09
2023-03-27T07:52:09.359Z,98492.28
2023-03-27T07:54:38.381Z,98505.78
2023-03-27T07:57:07.902Z,98499.19
2023-03-27T07:59:42.691Z,98499.84
2023-03-27T08:02:11.454Z,98507.19
2023-03-27T08:04:40.189Z,98504.94
2023-03-27T08:07:08.685Z,98508.59
2023-03-27T08:09:37.730Z,98515.34
2023-03-27T08:12:08.400Z,98518.03
2023-03-27T08:14:38.835Z,98513.84
2023-03-27T08:17:15.570Z,98488.16
2023-03-27T08:19:46.488Z,98500.09
2023-03-27T08:22:15.114Z,98530.09
2023-03-27T08:24:46.233Z,98506.38
2023-03-27T08:27:16.154Z,98543.72
2023-03-27T08:29:45.929Z,98537.28
2023-03-27T08:32:14.146Z,98508.84
2023-03-27T08:34:43.081Z,98513.47
2023-03-27T08:37:11.247Z,98545.41
2023-03-27T08:39:40.008Z,98550.88
2023-03-27T08:42:18.462Z,98534.69
2023-03-27T08:44:55.359Z,98487.09
2023-03-27T08:47:41.729Z,98527.16
2023-03-27T08:50:36.670Z,98535.13
2023-03-27T08:53:14.618Z,98546.81
2023-03-27T08:55:44.788Z,98534.22
2023-03-27T08:58:20.911Z,98540.88
2023-03-27T09:01:01.038Z,98553.00
2023-03-27T09:03:45.803Z,98507.87
2023-03-27T09:06:54.845Z,98540.59
2023-03-27T09:09:39.265Z,98550.41
2023-03-27T09:12:28.882Z,98566.28
2023-03-27T09:15:00.590Z,98572.25
2023-03-27T09:17:41.224Z,98588.03
2023-03-27T09:20:34.719Z,98573.47
2023-03-27T09:23:16.258Z,98596.13
2023-03-27T09:25:51.735Z,98588.53
2023-03-27T09:28:24.459Z,98607.09
2023-03-27T09:30:54.332Z,98606.34
2023-03-27T09:33:24.330Z,98576.81
2023-03-27T09:35:52.862Z,98609.88
2023-03-27T09:38:30.023Z,98615.72
2023-03-27T09:41:03.491Z,98613.91
2023-03-27T09:43:53.762Z,98616.50
2023-03-27T09:46:27.381Z,98619.56
2023-03-27T09:49:07.083Z,98594.88
2023-03-27T09:51:41.373Z,98625.94
2023-03-27T09:54:15.515Z,98632.31
2023-03-27T09:57:17.136Z,98585.22
2023-03-27T10:00:02.603Z,98639.75
2023-03-27T10:02:32.276Z,98636.94
2023-03-27T10:05:04.535Z,98633.25
2023-03-27T10:07:33.693Z,98639.22
2023-03-27T10:10:08.318Z,98650.94
2023-03-27T10:12:39.888Z,98655.06
2023-03-27T10:15:27.237Z,98634.50
2023-03-27T10:17:56.460Z,98655.28
2023-03-27T10:20:25.850Z,98658.75
2023-03-27T10:23:06.791Z,98649.03
2023-03-27T10:25:42.446Z,98657.69
2023-03-27T10:28:15.373Z,98666.06
2023-03-27T10:31:00.052Z,98671.75
2023-03-27T10:33:37.330Z,98661.97
2023-03-27T10:36:10.648Z,98668.47
2023-03-27T10:38:41.758Z,98665.19
2023-03-27T10:41:28.049Z,98674.78
2023-03-27T10:43:58.404Z,98680.72
2023-03-27T10:46:29.134Z,98672.97
2023-03-27T10:49:42.535Z,98658.34
2023-03-27T10:52:43.770Z,98681.41
2023-03-27T10:55:41.722Z,98634.81
2023-03-27T10:58:34.013Z,98680.84
2023-03-27T11:01:11.364Z,98685.22
2023-03-27T11:03:54.276Z,98669.03
2023-03-27T11:06:34.147Z,98692.72
2023-03-27T11:09:17.940Z,98703.59
2023-03-27T11:12:01.506Z,98707.53
2023-03-27T11:15:02.951Z,98711.31
2023-03-27T11:17:54.241Z,98710.28
2023-03-27T11:20:40.313Z,98717.09
2023-03-27T11:23:15.691Z,98716.38
2023-03-27T11:25:51.969Z,98728.94
2023-03-27T11:28:23.545Z,98691.91
2023-03-27T11:31:13.621Z,98729.44
2023-03-27T11:34:06.253Z,98725.72
2023-03-27T11:37:16.695Z,98731.94
2023-03-27T11:39:54.178Z,98736.37
2023-03-27T11:42:37.048Z,98646.94
2023-03-27T11:45:12.802Z,98733.56
2023-03-27T11:48:02.267Z,98729.22
2023-03-27T11:51:09.100Z,98742.91
2023-03-27T11:54:00.069Z,98741.97
2023-03-27T11:56:54.778Z,98732.00
2023-03-27T11:59:43.380Z,98727.31
2023-03-27T12:02:23.387Z,98739.94
2023-03-27T12:05:14.601Z,98726.88
2023-03-27T12:07:58.105Z,98744.06
2023-03-27T12:10:36.247Z,98751.72
2023-03-27T12:13:41.070Z,98740.84
2023-03-27T12:16:32.682Z,98746.50
2023-03-27T12:19:42.334Z,98755.53
2023-03-27T12:22:23.859Z,98742.75
2023-03-27T12:25:35.936Z,98769.56
2023-03-27T12:28:42.209Z,98715.00
2023-03-27T12:31:51.499Z,98772.78
2023-03-27T12:34:53.401Z,98788.00
2023-03-27T12:37:26.579Z,98800.50
2023-03-27T12:39:59.314Z,98792.94
2023-03-27T12:42:49.799Z,98792.84
2023-03-27T12:45:24.856Z,98817.63
2023-03-27T12:48:11.411Z,98797.47
2023-03-27T12:50:48.300Z,98777.41
2023-03-27T12:53:25.292Z,98827.75
2023-03-27T12:56:24.836Z,98854.78
2023-03-27T12:58:55.302Z,98881.72
2023-03-27T13:01:45.506Z,98850.78
2023-03-27T13:04:57.203Z,98884.00
2023-03-27T13:07:45.102Z,98898.38
2023-03-27T13:10:44.519Z,98899.66
2023-03-27T13:13:38.732Z,98908.97
2023-03-27T13:16:30.573Z,98912.03
2023-03-27T13:19:42.377Z,98907.97
2023-03-27T13:22:37.127Z,98924.25
2023-03-27T13:25:17.817Z,98922.03
2023-03-27T13:28:04.905Z,98935.63
2023-03-27T13:30:45.307Z,98949.22
2023-03-27T13:33:26.690Z,98923.09
2023-03-27T13:35:58.173Z,98952.28
2023-03-27T13:39:08.739Z,98956.94
2023-03-27T13:41:43.707Z,98968.69
2023-03-27T13:44:28.362Z,98977.63
2023-03-27T13:47:20.720Z,98986.75
2023-03-27T13:50:17.080Z,98997.53
2023-03-27T13:53:13.541Z,99007.44
2023-03-27T13:55:49.804Z,99021.84
2023-03-27T13:58:54.458Z,99012.06
2023-03-27T14:02:01.619Z,99018.47
2023-03-27T14:04:47.664Z,99040.81
2023-03-27T14:07:44.150Z,99043.88
2023-03-27T14:10:35.980Z,99059.72
2023-03-27T14:13:18.009Z,99068.63
2023-03-27T14:16:13.348Z,99065.56
2023-03-27T14:19:13.324Z,99076.78
2023-03-27T14:22:15.574Z,99109.03
2023-03-27T14:25:00.536Z,99102.53
2023-03-27T14:27:33.541Z,99123.81
2023-03-27T14:30:19.389Z,99129.53
2023-03-27T14:32:50.285Z,99131.41
2023-03-27T14:35:42.546Z,99133.94
2023-03-27T14:38:22.135Z,99143.78
2023-03-27T14:40:52.476Z,99152.41
2023-03-27T14:43:22.332Z,99174.72
2023-03-27T14:45:57.378Z,99173.00
2023-03-27T14:48:51.403Z,99192.34
2023-03-27T14:51:35.325Z,99213.94
2023-03-27T14:54:08.714Z,99199.88
2023-03-27T14:56:45.905Z,99216.84
2023-03-27T14:59:21.004Z,99218.81
2023-03-27T15:01:50.844Z,99225.25
2023-03-27T15:04:19.724Z,99223.84
2023-03-27T15:06:49.981Z,99236.72
2023-03-27T15:09:25.778Z,99255.13
2023-03-27T15:11:56.571Z,99256.00
2023-03-27T15:14:27.980Z,99246.37
2023-03-27T15:17:17.974Z,99271.56
2023-03-27T15:19:56.043Z,99282.44
2023-03-27T15:22:44.549Z,99283.63
2023-03-27T15:25:18.064Z,99300.19
2023-03-27T15:27:53.070Z,99308.16
2023-03-27T15:30:34.330Z,99299.19
2023-03-27T15:33:04.663Z,99312.50
2023-03-27T15:35:36.462Z,99302.50
2023-03-27T15:38:07.169Z,99330.13
2023-03-27T15:40:47.889Z,99316.44
2023-03-27T15:43:24.521Z,99328.34
2023-03-27T15:46:04.518Z,99338.09
2023-03-27T15:48:35.509Z,99340.91
2023-03-27T15:51:05.789Z,99356.00
2023-03-27T15:53:46.296Z,99357.91
2023-03-27T15:56:14.407Z,99354.63
2023-03-27T15:59:01.038Z,99384.19
2023-03-27T16:01:35.107Z,99395.84
2023-03-27T16:04:14.583Z,99399.69
2023-03-27T16:06:45.994Z,99377.97
2023-03-27T16:09:40.195Z,99420.03
2023-03-27T16:12:11.624Z,99420.88
2023-03-27T16:14:53.968Z,99416.22
2023-03-27T16:17:34.864Z,99443.41
2023-03-27T16:20:23.938Z,99445.56
2023-03-27T16:22:52.827Z,99467.87
2023-03-27T16:25:21.073Z,99464.94
2023-03-27T16:27:56.019Z,99468.37
2023-03-27T16:30:42.393Z,99481.34
2023-03-27T16:33:16.782Z,99494.75
2023-03-27T16:35:45.728Z,99480.22
2023-03-27T16:38:14.285Z,99494.84
2023-03-27T16:40:44.271Z,99504.16
2023-03-27T16:43:12.921Z,99502.41
2023-03-27T16:45:41.210Z,99519.44
2023-03-27T16:48:11.669Z,99534.50
2023-03-27T16:50:41.310Z,99531.75
2023-03-27T16:53:09.295Z,99520.44
2023-03-27T16:55:37.216Z,99539.62
2023-03-27T16:58:05.915Z,99525.03
2023-03-27T17:00:34.944Z,99537.00
2023-03-27T17:03:03.319Z,99553.22
2023-03-27T17:05:34.487Z,99552.41
2023-03-27T17:08:02.792Z,99531.62
2023-03-27T17:10:36.601Z,99565.19
2023-03-27T17:13:04.845Z,99588.59
2023-03-27T17:15:40.392Z,99550.75
2023-03-27T17:18:08.465Z,99596.63
2023-03-27T17:20:36.996Z,99603.31
2023-03-27T17:23:06.678Z,99580.53
2023-03-27T17:25:34.464Z,99588.41
2023-03-27T17:28:02.634Z,99624.78
2023-03-27T17:30:37.299Z,99614.59
2023-03-27T17:33:08.639Z,99616.41
2023-03-27T17:35:42.874Z,99639.34
2023-03-27T17:38:11.584Z,99620.97
2023-03-27T17:40:41.652Z,99652.59
2023-03-27T17:43:09.727Z,99665.50
2023-03-27T17:45:42.137Z,99654.81
2023-03-27T17:48:11.548Z,99673.87
2023-03-27T17:50:40.043Z,99679.94
2023-03-27T17:53:08.101Z,99681.25
2023-03-27T17:55:39.904Z,99682.91
2023-03-27T17:58:12.504Z,99693.38
2023-03-27T18:00:41.553Z,99691.06
2023-03-27T18:03:10.227Z,99696.94
2023-03-27T18:05:40.515Z,99715.44
2023-03-27T18:08:11.374Z,99711.31
2023-03-27T18:10:48.742Z,99720.50
2023-03-27T18:13:19.796Z,99730.62
2023-03-27T18:15:57.061Z,99703.37
2023-03-27T18:18:26.018Z,99758.97
2023-03-27T18:20:55.246Z,99756.13
2023-03-27T18:23:23.952Z,99778.88
2023-03-27T18:25:51.977Z,99779.03
2023-03-27T18:28:20.460Z,99780.06
2023-03-27T18:31:03.934Z,99745.38
2023-03-27T18:33:33.154Z,99799.56
2023-03-27T18:36:01.633Z,99798.72
2023-03-27T18:38:32.769Z,99809.22
2023-03-27T18:41:01.382Z,99811.66
2023-03-27T18:43:30.065Z,99808.25
2023-03-27T18:46:00.208Z,99799.81
2023-03-27T18:48:31.121Z,99818.37
2023-03-27T18:51:03.019Z,99790.13
2023-03-27T18:53:35.890Z,99803.94
2023-03-27T18:56:04.622Z,99803.06
2023-03-27T18:58:34.542Z,99820.09
2023-03-27T19:01:22.918Z,99812.16
2023-03-27T19:03:51.927Z,99796.84
2023-03-27T19:06:41.097Z,99803.56
2023-03-27T19:09:09.852Z,99826.84
2023-03-27T19:11:38.427Z,99821.81
2023-03-27T19:14:10.479Z,99808.97
2023-03-27T19:16:39.161Z,99824.53
2023-03-27T19:19:13.987Z,99841.87
2023-03-27T19:21:44.770Z,99834.78
2023-03-27T19:24:16.512Z,99855.63
2023-03-27T19:26:45.551Z,99851.53
2023-03-27T19:29:13.709Z,99857.00
2023-03-27T19:31:41.919Z,99855.94
2023-03-27T19:34:10.621Z,99870.22
2023-03-27T19:36:38.795Z,99877.06
2023-03-27T19:39:07.286Z,99872.94
2023-03-27T19:41:35.854Z,99877.22
2023-03-27T19:44:04.254Z,99861.38
2023-03-27T19:46:32.416Z,99868.56
2023-03-27T19:49:01.094Z,99880.44
2023-03-27T19:51:30.766Z,99893.69
2023-03-27T19:53:59.252Z,99894.34
2023-03-27T19:56:27.935Z,99890.97
2023-03-27T19:58:56.418Z,99908.94
2023-03-27T20:01:28.559Z,99901.44
2023-03-27T20:03:57.573Z,99895.47
2023-03-27T20:06:26.246Z,99900.72
2023-03-27T20:08:55.661Z,99890.53
2023-03-27T20:11:27.165Z,99910.44
2023-03-27T20:13:57.065Z,99921.66
2023-03-27T20:16:27.831Z,99907.69
2023-03-27T20:19:04.017Z,99925.03
2023-03-27T20:21:40.734Z,99923.25
2023-03-27T20:24:10.876Z,99929.97
2023-03-27T20:26:42.158Z,99906.34
2023-03-27T20:29:13.559Z,99935.06
2023-03-27T20:31:42.299Z,99944.03
2023-03-27T20:34:10.384Z,99957.28
2023-03-27T20:36:39.272Z,99939.19
2023-03-27T20:39:14.426Z,99958.84
2023-03-27T20:41:42.439Z,99943.97
2023-03-27T20:44:15.867Z,99968.25
2023-03-27T20:46:51.282Z,99970.34
2023-03-27T20:51:59.898Z,99968.25
2023-03-27T20:54:29.291Z,99960.69
2023-03-27T20:56:57.130Z,99975.16
2023-03-27T20:59:25.046Z,99967.97
2023-03-27T21:01:56.097Z,99974.97
2023-03-27T21:04:26.122Z,99978.56
2023-03-27T21:06:55.191Z,99981.72
2023-03-27T21:09:25.504Z,99978.56
2023-03-27T21:11:55.163Z,99983.72
2023-03-27T21:14:23.835Z,99982.62
2023-03-27T21:16:51.836Z,99993.37
2023-03-27T21:19:26.708Z,99990.22
2023-03-27T21:21:55.432Z,100004.84
2023-03-27T21:24:23.372Z,100001.66
2023-03-27T21:26:51.484Z,99995.41
2023-03-27T21:29:21.041Z,100003.41
2023-03-27T21:31:49.199Z,100013.72
2023-03-27T21:34:17.122Z,100003.28
2023-03-27T21:36:45.336Z,99989.88
2023-03-27T21:39:13.366Z,100026.09
2023-03-27T21:41:41.284Z,100018.31
2023-03-27T21:44:09.412Z,100026.84
2023-03-27T21:46:37.248Z,100014.44
2023-03-27T21:49:05.098Z,100008.97
2023-03-27T21:51:33.726Z,100035.06
2023-03-27T21:54:01.726Z,100039.31
2023-03-27T21:56:29.643Z,100027.16
2023-03-27T21:58:57.884Z,100046.91
2023-03-27T22:01:26.245Z,100045.84
2023-03-27T22:03:55.239Z,100054.91
2023-03-27T22:06:23.238Z,100047.41
2023-03-27T22:08:51.195Z,100031.06
2023-03-27T22:11:20.099Z,100058.66
2023-03-27T22:13:49.149Z,100059.62
2023-03-27T22:16:17.900Z,100057.03
2023-03-27T22:18:46.191Z,100068.00
2023-03-27T22:21:18.135Z,100053.31
2023-03-27T22:23:46.567Z,100074.63
2023-03-27T22:26:14.456Z,100073.94
2023-03-27T22:28:42.386Z,100077.22
2023-03-27T22:31:10.945Z,100071.19
2023-03-27T22:33:39.145Z,100088.25
2023-03-27T22:36:09.609Z,100083.44
2023-03-27T22:38:38.515Z,100093.22
2023-03-27T22:41:08.090Z,100085.22
2023-03-27T22:43:36.049Z,100107.25
2023-03-27T22:46:12.311Z,100110.53
2023-03-27T22:48:41.081Z,100110.69
2023-03-27T22:51:10.943Z,100119.38
2023-03-27T22:53:39.149Z,100119.50
2023-03-27T22:56:08.162Z,100127.75
2023-03-27T22:58:36.686Z,100126.94
2023-03-27T23:01:06.384Z,100109.09
2023-03-27T23:03:34.579Z,100133.69
2023-03-27T23:06:03.088Z,100121.06
2023-03-27T23:08:31.253Z,100103.72
2023-03-27T23:11:04.680Z,100103.97
2023-03-27T23:13:34.838Z,100138.63
2023-03-27T23:16:03.102Z,100150.88
2023-03-27T23:18:31.316Z,100129.56
2023-03-27T23:21:05.473Z,100158.97
2023-03-27T23:23:34.980Z,100167.81
2023-03-27T23:26:04.491Z,100173.03
2023-03-27T23:28:37.175Z,100172.19
2023-03-27T23:31:10.362Z,100179.78
2023-03-27T23:33:43.539Z,100186.22
2023-03-27T23:36:17.234Z,100191.03
2023-03-27T23:38:46.137Z,100183.91
2023-03-27T23:41:15.882Z,100191.88
2023-03-27T23:43:44.213Z,100207.69
2023-03-27T23:46:12.942Z,100202.22
2023-03-27T23:48:43.382Z,100202.22
2023-03-27T23:51:13.393Z,100203.44
2023-03-27T23:53:42.181Z,100200.66
2023-03-27T23:56:10.824Z,100202.34
2023-03-27T23:58:39.003Z,100178.81
